createdAt,value
2022-12-03T00:01:59.222Z,24.88
2022-12-03T00:04:26.802Z,24.23
2022-12-03T00:06:53.605Z,26.50
2022-12-03T00:09:20.858Z,24.83
2022-12-03T00:11:48.196Z,23.80
2022-12-03T00:14:15.471Z,23.65
2022-12-03T00:16:42.637Z,23.98
2022-12-03T00:19:09.894Z,22.60
2022-12-03T00:21:36.681Z,21.35
2022-12-03T00:24:03.627Z,22.83
2022-12-03T00:26:30.829Z,23.05
2022-12-03T00:28:58.218Z,20.45
2022-12-03T00:31:25.593Z,20.75
2022-12-03T00:33:53.048Z,18.40
2022-12-03T00:36:20.433Z,16.85
2022-12-03T00:38:47.702Z,15.88
2022-12-03T00:41:14.916Z,15.05
2022-12-03T00:43:41.690Z,14.32
2022-12-03T00:46:08.957Z,15.70
2022-12-03T00:48:35.850Z,16.13
2022-12-03T00:51:03.110Z,15.88
2022-12-03T00:53:30.365Z,15.13
2022-12-03T00:55:57.580Z,16.92
2022-12-03T00:58:24.839Z,16.60
2022-12-03T01:00:52.038Z,15.55
2022-12-03T01:03:19.234Z,15.05
2022-12-03T01:05:46.477Z,14.85
2022-12-03T01:08:16.466Z,15.20
2022-12-03T01:10:43.833Z,15.75
2022-12-03T01:13:11.050Z,15.63
2022-12-03T01:15:38.316Z,15.07
2022-12-03T01:18:05.674Z,15.18
2022-12-03T01:20:32.965Z,15.38
2022-12-03T01:23:00.158Z,15.20
2022-12-03T01:25:27.353Z,14.50
2022-12-03T01:27:54.608Z,15.35
2022-12-03T01:30:21.846Z,14.45
2022-12-03T01:32:48.670Z,15.85
2022-12-03T01:35:15.440Z,15.02
2022-12-03T01:37:42.637Z,15.38
2022-12-03T01:40:12.149Z,15.02
2022-12-03T01:42:42.044Z,16.23
2022-12-03T01:45:21.783Z,15.85
2022-12-03T01:47:49.139Z,15.65
2022-12-03T01:50:23.124Z,17.15
2022-12-03T01:52:50.439Z,17.42
2022-12-03T01:55:21.132Z,17.00
2022-12-03T01:57:52.442Z,17.95
2022-12-03T02:00:22.684Z,17.63
2022-12-03T02:02:52.864Z,17.60
2022-12-03T02:05:23.330Z,29.45
2022-12-03T02:07:50.648Z,19.50
2022-12-03T02:10:20.968Z,19.17
2022-12-03T02:12:57.697Z,19.38
2022-12-03T02:15:24.999Z,19.15
2022-12-03T02:17:52.320Z,17.42
2022-12-03T02:20:19.805Z,18.70
2022-12-03T02:22:57.657Z,17.50
2022-12-03T02:25:33.768Z,17.65
2022-12-03T02:28:01.815Z,17.65
2022-12-03T02:30:31.094Z,18.00
2022-12-03T02:32:58.559Z,18.00
2022-12-03T02:35:28.536Z,18.08
2022-12-03T02:38:10.091Z,18.95
2022-12-03T02:40:37.541Z,18.40
2022-12-03T02:43:05.155Z,18.65
2022-12-03T02:45:39.605Z,17.60
2022-12-03T02:48:14.612Z,18.42
2022-12-03T02:50:46.654Z,17.77
2022-12-03T02:53:17.839Z,18.48
2022-12-03T02:55:45.416Z,19.23
2022-12-03T02:58:12.847Z,18.50
2022-12-03T03:00:40.044Z,17.67
2022-12-03T03:03:08.226Z,18.70
2022-12-03T03:05:37.322Z,18.17
2022-12-03T03:08:05.311Z,18.05
2022-12-03T03:10:34.263Z,18.20
2022-12-03T03:13:08.785Z,18.40
2022-12-03T03:15:37.423Z,17.35
2022-12-03T03:18:05.407Z,17.40
2022-12-03T03:20:32.904Z,17.17
2022-12-03T03:23:26.321Z,17.67
2022-12-03T03:26:09.489Z,15.15
2022-12-03T03:28:42.610Z,16.73
2022-12-03T03:31:12.965Z,15.70
2022-12-03T03:33:42.076Z,16.58
2022-12-03T03:36:09.494Z,16.25
2022-12-03T03:38:37.740Z,16.02
2022-12-03T03:41:07.648Z,15.77
2022-12-03T03:43:35.525Z,15.00
2022-12-03T03:46:04.485Z,14.90
2022-12-03T03:48:34.045Z,14.75
2022-12-03T03:51:03.576Z,15.43
2022-12-03T03:53:30.902Z,16.40
2022-12-03T03:55:58.201Z,16.08
2022-12-03T03:58:25.405Z,14.70
2022-12-03T04:00:52.716Z,14.63
2022-12-03T04:03:20.145Z,15.70
2022-12-03T04:05:47.840Z,16.05
2022-12-03T04:08:15.096Z,16.52
2022-12-03T04:11:00.982Z,15.98
2022-12-03T04:13:28.169Z,16.42
2022-12-03T04:15:55.351Z,16.95
2022-12-03T04:18:41.080Z,16.58
2022-12-03T04:21:26.992Z,16.60
2022-12-03T04:23:54.264Z,18.70
2022-12-03T04:26:40.316Z,17.98
2022-12-03T04:29:07.482Z,17.45
2022-12-03T04:31:53.352Z,17.35
2022-12-03T04:34:39.251Z,17.10
2022-12-03T04:37:06.436Z,16.15
2022-12-03T04:39:33.742Z,18.08
2022-12-03T04:42:00.634Z,16.33
2022-12-03T04:44:33.412Z,15.75
2022-12-03T04:47:08.516Z,16.75
2022-12-03T04:49:44.627Z,16.63
2022-12-03T04:52:12.722Z,16.27
2022-12-03T04:54:39.953Z,17.30
2022-12-03T04:57:07.649Z,16.90
2022-12-03T04:59:35.849Z,17.42
2022-12-03T05:02:04.395Z,17.30
2022-12-03T05:04:32.671Z,15.93
2022-12-03T05:06:59.843Z,14.95
2022-12-03T05:09:27.122Z,14.43
2022-12-03T05:11:54.307Z,13.48
2022-12-03T05:14:21.493Z,13.52
2022-12-03T05:16:48.677Z,14.27
2022-12-03T05:19:15.919Z,12.73
2022-12-03T05:21:43.164Z,14.98
2022-12-03T05:24:10.568Z,16.15
2022-12-03T05:26:37.777Z,16.40
2022-12-03T05:29:05.044Z,15.20
2022-12-03T05:31:31.981Z,15.32
2022-12-03T05:33:59.291Z,15.05
2022-12-03T05:36:26.551Z,15.63
2022-12-03T05:38:53.715Z,16.25
2022-12-03T05:41:40.045Z,16.05
2022-12-03T05:44:07.219Z,18.27
2022-12-03T05:46:34.673Z,17.10
2022-12-03T05:49:01.621Z,16.55
2022-12-03T05:51:28.576Z,17.10
2022-12-03T05:53:57.638Z,17.08
2022-12-03T05:56:24.804Z,17.10
2022-12-03T05:58:51.998Z,18.35
2022-12-03T06:01:18.841Z,17.80
2022-12-03T06:03:46.150Z,16.08
2022-12-03T06:06:13.460Z,15.80
2022-12-03T06:08:40.695Z,15.88
2022-12-03T06:11:07.489Z,17.20
2022-12-03T06:13:34.637Z,15.75
2022-12-03T06:16:01.898Z,16.10
2022-12-03T06:18:29.120Z,14.93
2022-12-03T06:20:56.320Z,15.15
2022-12-03T06:23:23.564Z,15.95
2022-12-03T06:25:50.794Z,15.23
2022-12-03T06:28:18.003Z,16.95
2022-12-03T06:30:44.871Z,15.05
2022-12-03T06:33:12.080Z,15.15
2022-12-03T06:35:38.950Z,14.40
2022-12-03T06:38:06.409Z,15.68
2022-12-03T06:40:33.660Z,16.55
2022-12-03T06:43:00.852Z,16.25
2022-12-03T06:45:27.688Z,15.25
2022-12-03T06:47:54.611Z,17.33
2022-12-03T06:50:21.788Z,17.63
2022-12-03T06:52:49.129Z,15.85
2022-12-03T06:55:16.406Z,15.95
2022-12-03T06:57:43.602Z,16.50
2022-12-03T07:00:11.167Z,16.92
2022-12-03T07:02:38.462Z,17.42
2022-12-03T07:05:05.833Z,16.13
2022-12-03T07:07:33.177Z,17.38
2022-12-03T07:10:00.485Z,17.27
2022-12-03T07:12:27.687Z,19.13
2022-12-03T07:14:54.647Z,18.73
2022-12-03T07:17:21.997Z,18.42
2022-12-03T07:19:50.270Z,18.42
2022-12-03T07:22:17.497Z,19.88
2022-12-03T07:24:44.733Z,19.52
2022-12-03T07:27:11.598Z,20.08
2022-12-03T07:29:38.740Z,20.65
2022-12-03T07:32:06.548Z,18.92
2022-12-03T07:34:33.755Z,19.50
2022-12-03T07:37:00.538Z,20.38
2022-12-03T07:39:27.774Z,20.65
2022-12-03T07:41:54.961Z,19.45
2022-12-03T07:44:22.272Z,19.50
2022-12-03T07:46:49.575Z,18.85
2022-12-03T07:49:16.816Z,17.42
2022-12-03T07:51:53.205Z,17.63
2022-12-03T07:54:24.252Z,19.75
2022-12-03T07:56:51.127Z,18.90
2022-12-03T07:59:18.363Z,20.27
2022-12-03T08:01:45.818Z,20.33
2022-12-03T08:04:14.659Z,19.95
2022-12-03T08:06:41.918Z,19.23
2022-12-03T08:09:13.205Z,21.20
2022-12-03T08:11:45.036Z,18.90
2022-12-03T08:14:14.478Z,19.30
2022-12-03T08:16:43.529Z,48.70
2022-12-03T08:19:15.510Z,37.08
2022-12-03T08:21:43.146Z,24.15
2022-12-03T08:24:17.996Z,21.23
2022-12-03T08:26:46.156Z,18.75
2022-12-03T08:29:16.349Z,19.77
2022-12-03T08:31:48.808Z,20.75
2022-12-03T08:34:16.530Z,21.52
2022-12-03T08:36:44.128Z,20.77
2022-12-03T08:39:30.360Z,22.60
2022-12-03T08:42:31.940Z,21.17
2022-12-03T08:45:21.771Z,19.88
2022-12-03T08:47:49.692Z,19.98
2022-12-03T08:50:29.868Z,19.92
2022-12-03T08:53:08.289Z,20.63
2022-12-03T08:55:37.200Z,19.13
2022-12-03T08:58:24.255Z,27.88
2022-12-03T09:00:59.968Z,21.85
2022-12-03T09:03:31.113Z,20.92
2022-12-03T09:05:58.562Z,32.10
2022-12-03T09:08:26.009Z,21.38
2022-12-03T09:10:53.128Z,20.42
2022-12-03T09:13:21.135Z,19.25
2022-12-03T09:15:48.613Z,28.58
2022-12-03T09:18:16.134Z,23.63
2022-12-03T09:20:43.279Z,23.23
2022-12-03T09:23:11.023Z,22.23
2022-12-03T09:25:38.657Z,21.80
2022-12-03T09:28:08.855Z,28.83
2022-12-03T09:30:35.919Z,32.58
2022-12-03T09:33:03.832Z,23.63
2022-12-03T09:35:34.059Z,22.80
2022-12-03T09:38:01.841Z,22.95
2022-12-03T09:40:29.365Z,20.77
2022-12-03T09:42:58.600Z,22.63
2022-12-03T09:45:26.051Z,23.33
2022-12-03T09:47:53.298Z,23.02
2022-12-03T09:50:25.075Z,22.73
2022-12-03T09:52:56.729Z,23.52
2022-12-03T09:55:26.262Z,21.10
2022-12-03T09:57:54.274Z,23.08
2022-12-03T10:00:26.835Z,22.73
2022-12-03T10:02:57.308Z,21.25
2022-12-03T10:05:24.972Z,20.75
2022-12-03T10:07:52.758Z,20.67
2022-12-03T10:10:24.392Z,23.95
2022-12-03T10:12:52.289Z,23.15
2022-12-03T10:15:22.443Z,23.92
2022-12-03T10:17:52.605Z,22.98
2022-12-03T10:20:21.795Z,22.63
2022-12-03T10:22:49.183Z,24.50
2022-12-03T10:25:19.214Z,22.42
2022-12-03T10:28:06.235Z,21.38
2022-12-03T10:30:33.418Z,22.83
2022-12-03T10:33:18.439Z,23.15
2022-12-03T10:35:45.976Z,21.08
2022-12-03T10:38:20.196Z,20.33
2022-12-03T10:40:47.370Z,20.20
2022-12-03T10:43:23.917Z,21.40
2022-12-03T10:45:51.910Z,19.63
2022-12-03T10:48:30.830Z,19.58
2022-12-03T10:51:18.191Z,19.00
2022-12-03T10:53:45.073Z,20.23
2022-12-03T10:56:23.968Z,22.10
2022-12-03T10:58:51.075Z,20.95
2022-12-03T11:01:26.103Z,21.98
2022-12-03T11:03:55.420Z,21.80
2022-12-03T11:06:23.318Z,27.05
2022-12-03T11:08:57.504Z,24.20
2022-12-03T11:11:30.651Z,25.85
2022-12-03T11:14:02.503Z,25.73
2022-12-03T11:16:41.416Z,30.52
2022-12-03T11:19:44.435Z,59.38
2022-12-03T11:22:12.285Z,26.73
2022-12-03T11:24:42.594Z,24.48
2022-12-03T11:27:10.435Z,24.85
2022-12-03T11:29:54.123Z,28.77
2022-12-03T11:32:39.532Z,23.23
2022-12-03T11:35:15.697Z,22.77
2022-12-03T11:37:43.009Z,24.75
2022-12-03T11:40:10.127Z,25.88
2022-12-03T11:42:40.827Z,27.10
2022-12-03T11:45:10.868Z,25.60
2022-12-03T11:47:47.430Z,26.23
2022-12-03T11:50:21.884Z,25.90
2022-12-03T11:53:14.843Z,25.35
2022-12-03T11:55:48.301Z,25.08
2022-12-03T11:58:20.027Z,27.35
2022-12-03T12:00:55.302Z,26.63
2022-12-03T12:03:35.076Z,25.83
2022-12-03T12:06:13.868Z,26.77
2022-12-03T12:08:55.040Z,26.90
2022-12-03T12:11:33.669Z,24.50
2022-12-03T12:14:00.923Z,26.98
2022-12-03T12:16:52.739Z,25.88
2022-12-03T12:19:39.897Z,27.17
2022-12-03T12:22:25.142Z,26.50
2022-12-03T12:25:02.571Z,27.80
2022-12-03T12:27:30.286Z,28.38
2022-12-03T12:30:04.510Z,27.40
2022-12-03T12:32:44.005Z,26.35
2022-12-03T12:35:24.149Z,25.40
2022-12-03T12:38:01.577Z,25.83
2022-12-03T12:40:31.824Z,24.73
2022-12-03T12:43:16.476Z,24.95
2022-12-03T12:45:46.944Z,23.40
2022-12-03T12:48:35.111Z,24.40
2022-12-03T12:51:18.593Z,24.35
2022-12-03T12:53:46.321Z,25.92
2022-12-03T12:56:26.656Z,24.60
2022-12-03T12:58:54.462Z,25.77
2022-12-03T13:01:22.524Z,28.10
2022-12-03T13:03:51.767Z,27.38
2022-12-03T13:06:26.256Z,27.33
2022-12-03T13:08:53.845Z,27.58
2022-12-03T13:11:41.982Z,28.60
2022-12-03T13:14:26.531Z,27.48
2022-12-03T13:16:55.986Z,26.45
2022-12-03T13:19:46.665Z,26.33
2022-12-03T13:22:19.383Z,25.80
2022-12-03T13:24:51.236Z,26.85
2022-12-03T13:27:18.426Z,24.98
2022-12-03T13:29:48.906Z,26.65
2022-12-03T13:32:36.687Z,36.03
2022-12-03T13:35:18.433Z,27.27
2022-12-03T13:37:45.687Z,30.80
2022-12-03T13:40:20.292Z,29.13
2022-12-03T13:42:48.492Z,30.67
2022-12-03T13:45:16.037Z,25.35
2022-12-03T13:47:46.938Z,25.40
2022-12-03T13:50:38.505Z,27.20
2022-12-03T13:53:11.374Z,26.83
2022-12-03T13:55:45.732Z,27.17
2022-12-03T13:58:14.439Z,30.00
2022-12-03T14:00:41.673Z,26.63
2022-12-03T14:03:09.437Z,28.85
2022-12-03T14:05:36.593Z,29.13
2022-12-03T14:08:04.781Z,29.25
2022-12-03T14:10:32.295Z,27.63
2022-12-03T14:12:59.185Z,28.27
2022-12-03T14:15:26.407Z,29.48
2022-12-03T14:17:53.745Z,29.25
2022-12-03T14:20:20.942Z,29.20
2022-12-03T14:22:48.109Z,29.92
2022-12-03T14:25:15.685Z,27.85
2022-12-03T14:27:42.999Z,28.73
2022-12-03T14:30:10.311Z,30.58
2022-12-03T14:32:37.519Z,27.02
2022-12-03T14:35:09.750Z,28.52
2022-12-03T14:37:37.491Z,28.02
2022-12-03T14:40:06.982Z,28.73
2022-12-03T14:42:34.494Z,26.15
2022-12-03T14:45:01.669Z,29.70
2022-12-03T14:47:28.934Z,27.75
2022-12-03T14:49:56.441Z,28.65
2022-12-03T14:52:24.010Z,29.52
2022-12-03T14:54:51.227Z,29.52
2022-12-03T14:57:18.466Z,27.63
2022-12-03T14:59:47.052Z,27.90
2022-12-03T15:02:14.472Z,29.38
2022-12-03T15:04:41.916Z,28.95
2022-12-03T15:07:09.330Z,29.58
2022-12-03T15:09:36.517Z,30.85
2022-12-03T15:12:04.167Z,28.73
2022-12-03T15:14:31.370Z,30.50
2022-12-03T15:16:58.743Z,29.67
2022-12-03T15:19:26.000Z,31.35
2022-12-03T15:21:53.217Z,30.70
2022-12-03T15:24:20.484Z,31.40
2022-12-03T15:26:47.645Z,30.13
2022-12-03T15:29:14.876Z,31.85
2022-12-03T15:31:42.095Z,31.08
2022-12-03T15:34:09.426Z,33.38
2022-12-03T15:36:36.283Z,34.47
2022-12-03T15:39:04.547Z,32.42
2022-12-03T15:41:31.619Z,32.85
2022-12-03T15:44:01.906Z,32.53
2022-12-03T15:46:29.601Z,36.97
2022-12-03T15:48:56.988Z,32.45
2022-12-03T15:51:24.403Z,32.03
2022-12-03T15:53:51.227Z,32.33
2022-12-03T15:56:18.678Z,33.75
2022-12-03T15:58:45.914Z,34.33
2022-12-03T16:01:13.656Z,33.75
2022-12-03T16:03:41.685Z,32.65
2022-12-03T16:06:09.341Z,32.50
2022-12-03T16:08:36.499Z,33.85
2022-12-03T16:11:04.359Z,32.90
2022-12-03T16:13:31.267Z,33.25
2022-12-03T16:15:58.279Z,33.53
2022-12-03T16:18:25.557Z,33.25
2022-12-03T16:20:52.818Z,34.78
2022-12-03T16:23:20.495Z,33.42
2022-12-03T16:25:47.684Z,33.40
2022-12-03T16:28:15.234Z,33.03
2022-12-03T16:30:42.588Z,32.40
2022-12-03T16:33:10.217Z,33.60
2022-12-03T16:35:38.446Z,33.88
2022-12-03T16:38:05.222Z,32.25
2022-12-03T16:40:32.388Z,31.63
2022-12-03T16:42:59.560Z,35.40
2022-12-03T16:45:27.084Z,32.72
2022-12-03T16:47:54.245Z,33.33
2022-12-03T16:50:29.016Z,32.80
2022-12-03T16:52:57.204Z,33.58
2022-12-03T16:55:25.003Z,33.78
2022-12-03T16:57:52.219Z,32.10
2022-12-03T17:00:21.762Z,33.50
2022-12-03T17:02:49.542Z,32.80
2022-12-03T17:05:16.790Z,32.90
2022-12-03T17:07:44.673Z,31.33
2022-12-03T17:10:12.071Z,32.58
2022-12-03T17:13:07.773Z,31.50
2022-12-03T17:15:26.436Z,31.05
2022-12-03T17:17:53.687Z,33.33
2022-12-03T17:20:20.907Z,33.70
2022-12-03T17:22:48.400Z,33.47
2022-12-03T17:25:15.701Z,32.30
2022-12-03T17:27:45.533Z,33.10
2022-12-03T17:30:13.474Z,33.00
2022-12-03T17:32:40.766Z,31.15
2022-12-03T17:35:08.209Z,39.75
2022-12-03T17:37:35.535Z,33.55
2022-12-03T17:40:03.653Z,32.72
2022-12-03T17:42:30.936Z,33.58
2022-12-03T17:44:58.157Z,40.95
2022-12-03T17:47:25.339Z,40.72
2022-12-03T17:49:52.767Z,72.10
2022-12-03T17:52:20.081Z,38.38
2022-12-03T17:55:09.647Z,34.60
2022-12-03T17:57:34.432Z,34.00
2022-12-03T18:00:01.630Z,34.42
2022-12-03T18:02:39.377Z,32.58
2022-12-03T18:05:06.766Z,33.33
2022-12-03T18:07:34.081Z,31.83
2022-12-03T18:10:01.409Z,33.45
2022-12-03T18:12:43.859Z,31.90
2022-12-03T18:15:11.093Z,31.75
2022-12-03T18:17:38.299Z,33.47
2022-12-03T18:20:05.901Z,32.85
2022-12-03T18:22:33.090Z,30.00
2022-12-03T18:24:59.940Z,31.92
2022-12-03T18:27:27.097Z,32.63
2022-12-03T18:29:54.490Z,31.73
2022-12-03T18:32:30.007Z,31.58
2022-12-03T18:34:58.298Z,32.22
2022-12-03T18:37:29.378Z,30.75
2022-12-03T18:39:57.593Z,32.38
2022-12-03T18:42:25.335Z,32.17
2022-12-03T18:44:54.044Z,31.88
2022-12-03T18:47:23.627Z,31.50
2022-12-03T18:49:50.975Z,29.88
2022-12-03T18:52:20.761Z,30.63
2022-12-03T18:54:48.303Z,29.27
2022-12-03T18:57:15.767Z,31.00
2022-12-03T18:59:42.965Z,30.27
2022-12-03T19:02:38.658Z,30.30
2022-12-03T19:05:03.950Z,29.63
2022-12-03T19:07:31.312Z,66.30
2022-12-03T19:09:58.183Z,30.17
2022-12-03T19:12:25.444Z,29.23
2022-12-03T19:14:52.705Z,31.17
2022-12-03T19:17:21.314Z,30.08
2022-12-03T19:19:48.525Z,30.95
2022-12-03T19:22:15.871Z,29.30
2022-12-03T19:24:43.658Z,29.17
2022-12-03T19:27:10.821Z,29.42
2022-12-03T19:29:38.069Z,29.30
2022-12-03T19:32:05.389Z,29.08
2022-12-03T19:34:32.701Z,28.95
2022-12-03T19:36:59.827Z,28.60
2022-12-03T19:39:26.884Z,27.55
2022-12-03T19:41:54.035Z,30.23
2022-12-03T19:44:21.235Z,29.98
2022-12-03T19:46:49.815Z,28.45
2022-12-03T19:49:18.481Z,29.85
2022-12-03T19:51:45.722Z,28.85
2022-12-03T19:54:12.993Z,28.80
2022-12-03T19:56:40.153Z,28.83
2022-12-03T19:59:07.761Z,28.05
2022-12-03T20:01:36.098Z,28.83
2022-12-03T20:04:04.043Z,25.95
2022-12-03T20:06:32.867Z,29.20
2022-12-03T20:09:02.147Z,26.92
2022-12-03T20:11:31.626Z,28.67
2022-12-03T20:14:01.689Z,29.75
2022-12-03T20:16:29.597Z,28.70
2022-12-03T20:18:59.216Z,29.50
2022-12-03T20:21:26.793Z,27.92
2022-12-03T20:23:53.950Z,29.88
2022-12-03T20:26:21.691Z,28.75
2022-12-03T20:28:49.258Z,27.42
2022-12-03T20:31:17.944Z,28.02
2022-12-03T20:33:47.672Z,28.52
2022-12-03T20:36:16.875Z,27.67
2022-12-03T20:38:44.258Z,27.80
2022-12-03T20:41:14.142Z,28.85
2022-12-03T20:43:41.712Z,28.38
2022-12-03T20:46:10.041Z,28.48
2022-12-03T20:48:37.345Z,28.20
2022-12-03T20:51:09.139Z,26.98
2022-12-03T20:53:37.117Z,29.33
2022-12-03T20:56:04.800Z,28.83
2022-12-03T20:58:32.593Z,27.25
2022-12-03T21:01:16.127Z,28.15
2022-12-03T21:03:43.828Z,28.50
2022-12-03T21:06:11.634Z,26.50
2022-12-03T21:08:41.840Z,28.48
2022-12-03T21:11:11.386Z,28.17
2022-12-03T21:13:41.502Z,27.95
2022-12-03T21:16:11.034Z,28.25
2022-12-03T21:18:38.405Z,28.88
2022-12-03T21:21:06.113Z,30.17
2022-12-03T21:23:33.634Z,27.67
2022-12-03T21:26:18.125Z,29.83
2022-12-03T21:28:46.567Z,26.10
2022-12-03T21:31:21.113Z,26.55
2022-12-03T21:33:48.320Z,26.65
2022-12-03T21:36:16.817Z,32.28
2022-12-03T21:38:44.962Z,27.80
2022-12-03T21:41:12.412Z,26.83
2022-12-03T21:43:39.605Z,26.63
2022-12-03T21:47:10.721Z,27.90
2022-12-03T21:48:59.891Z,28.85
2022-12-03T21:51:27.073Z,28.33
2022-12-03T21:53:54.349Z,26.98
2022-12-03T21:56:21.707Z,26.88
2022-12-03T21:58:48.908Z,26.50
2022-12-03T22:01:18.767Z,25.35
2022-12-03T22:03:46.237Z,25.65
2022-12-03T22:06:13.801Z,25.58
2022-12-03T22:08:41.052Z,24.45
2022-12-03T22:11:16.694Z,24.77
2022-12-03T22:13:44.138Z,24.02
2022-12-03T22:16:13.813Z,24.80
2022-12-03T22:18:41.204Z,26.65
2022-12-03T22:21:11.241Z,25.13
2022-12-03T22:23:38.636Z,26.67
2022-12-03T22:26:09.211Z,27.08
2022-12-03T22:28:36.383Z,26.95
2022-12-03T22:31:07.282Z,26.05
2022-12-03T22:33:34.763Z,25.00
2022-12-03T22:36:04.753Z,24.70
2022-12-03T22:38:32.815Z,26.50
2022-12-03T22:41:00.226Z,25.73
2022-12-03T22:43:27.089Z,25.02
2022-12-03T22:45:55.174Z,26.67
2022-12-03T22:48:23.265Z,26.30
2022-12-03T22:50:51.588Z,24.38
2022-12-03T22:53:19.352Z,27.00
2022-12-03T22:55:57.831Z,27.45
2022-12-03T22:58:25.875Z,25.65
2022-12-03T23:00:54.562Z,27.60
2022-12-03T23:03:23.559Z,27.00
2022-12-03T23:05:50.848Z,29.48
2022-12-03T23:08:20.024Z,29.67
2022-12-03T23:10:49.508Z,27.95
2022-12-03T23:13:17.860Z,29.35
2022-12-03T23:15:46.529Z,29.20
2022-12-03T23:18:13.808Z,27.35
2022-12-03T23:20:48.615Z,27.52
2022-12-03T23:23:15.906Z,27.02
2022-12-03T23:25:43.268Z,26.92
2022-12-03T23:28:10.733Z,27.85
2022-12-03T23:30:38.737Z,28.17
2022-12-03T23:33:06.732Z,26.83
2022-12-03T23:35:34.068Z,24.25
2022-12-03T23:38:01.289Z,25.58
2022-12-03T23:40:28.913Z,24.45
2022-12-03T23:42:56.201Z,25.98
2022-12-03T23:45:23.371Z,25.52
2022-12-03T23:47:56.562Z,26.25
2022-12-03T23:50:25.422Z,26.30
2022-12-03T23:52:52.359Z,26.60
2022-12-03T23:55:20.038Z,27.05
2022-12-03T23:57:47.189Z,26.17
